Time,TemperatureF,DewpointF,PressureIn,WindDirection,WindDirectionDegrees,WindSpeedMPH,WindSpeedGustMPH,Humidity,HourlyPrecipIn,Conditions,Clouds,dailyrainin,SoftwareType,DateUTC
2013-02-28 00:02:00,80.1,75.0,29.89,ENE,77,8.0,18.0,83,0.00,,,0.00,weatherlink.com 1.10,2013-02-28 04:02:00,
2013-02-28 00:32:00,80.1,75.0,29.89,ENE,78,8.0,18.0,83,0.00,,,0.00,weatherlink.com 1.10,2013-02-28 04:32:00,
2013-02-28 00:47:00,80.1,75.0,29.88,East,100,9.0,17.0,83,0.00,,,0.00,weatherlink.com 1.10,2013-02-28 04:47:00,
2013-02-28 01:02:00,80.0,75.0,29.87,East,94,7.0,13.0,84,0.00,,,0.00,weatherlink.com 1.10,2013-02-28 05:02:00,
2013-02-28 01:17:00,80.1,75.0,29.87,ENE,73,5.0,15.0,83,0.00,,,0.00,weatherlink.com 1.10,2013-02-28 05:17:00,
2013-02-28 01:32:00,80.0,74.0,29.86,ENE,77,10.0,16.0,83,0.00,,,0.00,weatherlink.com 1.10,2013-02-28 05:32:00,
2013-02-28 01:47:00,80.0,74.0,29.85,East,96,5.0,18.0,83,0.00,,,0.00,weatherlink.com 1.10,2013-02-28 05:47:00,
2013-02-28 02:03:00,80.0,74.0,29.84,ENE,74,3.0,15.0,83,0.00,,,0.00,weatherlink.com 1.10,2013-02-28 06:03:00,
2013-02-28 02:18:00,79.9,74.0,29.84,ESE,108,11.0,16.0,83,0.00,,,0.00,weatherlink.com 1.10,2013-02-28 06:18:00,
2013-02-28 02:33:00,80.0,74.0,29.83,ENE,58,11.0,18.0,83,0.00,,,0.00,weatherlink.com 1.10,2013-02-28 06:33:00,
2013-02-28 02:48:00,79.9,74.0,29.83,South,178,10.0,16.0,83,0.00,,,0.00,weatherlink.com 1.10,2013-02-28 06:48:00,
2013-02-28 03:03:00,80.0,74.0,29.84,ESE,112,12.0,18.0,83,0.00,,,0.00,weatherlink.com 1.10,2013-02-28 07:03:00,
2013-02-28 03:18:00,80.0,74.0,29.83,East,101,17.0,19.0,83,0.00,,,0.00,weatherlink.com 1.10,2013-02-28 07:18:00,
2013-02-28 03:33:00,80.0,74.0,29.83,ESE,107,13.0,16.0,82,0.00,,,0.00,weatherlink.com 1.10,2013-02-28 07:33:00,
2013-02-28 03:48:00,80.1,75.0,29.84,ESE,119,10.0,17.0,83,0.00,,,0.00,weatherlink.com 1.10,2013-02-28 07:48:00,
2013-02-28 04:03:00,79.9,74.0,29.84,SE,126,11.0,16.0,83,0.00,,,0.00,weatherlink.com 1.10,2013-02-28 08:03:00,
2013-02-28 04:18:00,79.9,74.0,29.84,ENE,77,9.0,18.0,83,0.00,,,0.00,weatherlink.com 1.10,2013-02-28 08:18:00,
2013-02-28 04:33:00,80.0,74.0,29.84,ESE,108,10.0,18.0,82,0.00,,,0.00,weatherlink.com 1.10,2013-02-28 08:33:00,
2013-02-28 04:48:00,80.0,74.0,29.84,ENE,61,4.0,15.0,82,0.00,,,0.00,weatherlink.com 1.10,2013-02-28 08:48:00,
2013-02-28 05:03:00,80.0,74.0,29.84,East,81,13.0,17.0,83,0.00,,,0.00,weatherlink.com 1.10,2013-02-28 09:03:00,
2013-02-28 05:18:00,80.0,74.0,29.84,ESE,108,5.0,16.0,82,0.00,,,0.00,weatherlink.com 1.10,2013-02-28 09:18:00,
2013-02-28 05:33:00,79.9,74.0,29.84,East,85,5.0,16.0,83,0.00,,,0.00,weatherlink.com 1.10,2013-02-28 09:33:00,
2013-02-28 05:48:00,79.9,74.0,29.85,East,86,7.0,17.0,82,0.00,,,0.00,weatherlink.com 1.10,2013-02-28 09:48:00,
2013-02-28 06:03:00,80.0,74.0,29.85,ESE,103,10.0,17.0,82,0.00,,,0.00,weatherlink.com 1.10,2013-02-28 10:03:00,
2013-02-28 06:18:00,79.8,74.0,29.86,ENE,63,12.0,16.0,82,0.00,,,0.00,weatherlink.com 1.10,2013-02-28 10:18:00,
2013-02-28 06:33:00,79.6,74.0,29.86,SE,125,3.0,17.0,83,0.00,,,0.00,weatherlink.com 1.10,2013-02-28 10:33:00,
2013-02-28 06:48:00,79.5,74.0,29.87,ENE,72,9.0,15.0,84,0.00,,,0.00,weatherlink.com 1.10,2013-02-28 10:48:00,
2013-02-28 07:03:00,79.7,74.0,29.87,East,95,8.0,16.0,83,0.00,,,0.00,weatherlink.com 1.10,2013-02-28 11:03:00,
2013-02-28 07:18:00,79.5,74.0,29.88,East,93,8.0,14.0,84,0.00,,,0.00,weatherlink.com 1.10,2013-02-28 11:18:00,
2013-02-28 07:33:00,79.3,74.0,29.88,East,84,8.0,13.0,84,0.00,,,0.00,weatherlink.com 1.10,2013-02-28 11:33:00,
2013-02-28 07:48:00,79.8,74.0,29.89,ENE,76,5.0,14.0,82,0.00,,,0.00,weatherlink.com 1.10,2013-02-28 11:48:00,
2013-02-28 08:03:00,80.1,74.0,29.89,East,90,8.0,18.0,82,0.00,,,0.00,weatherlink.com 1.10,2013-02-28 12:03:00,
2013-02-28 08:18:00,80.1,74.0,29.89,East,99,9.0,16.0,81,0.00,,,0.00,weatherlink.com 1.10,2013-02-28 12:18:00,
2013-02-28 08:33:00,80.3,74.0,29.90,ESE,106,10.0,17.0,80,0.00,,,0.00,weatherlink.com 1.10,2013-02-28 12:33:00,
2013-02-28 08:48:00,80.1,74.0,29.90,ENE,74,7.0,15.0,81,0.00,,,0.00,weatherlink.com 1.10,2013-02-28 12:48:00,
2013-02-28 09:03:00,80.6,74.0,29.91,NE,53,8.0,19.0,81,0.00,,,0.00,weatherlink.com 1.10,2013-02-28 13:03:00,
2013-02-28 09:18:00,81.1,74.0,29.91,ESE,111,10.0,18.0,78,0.00,,,0.00,weatherlink.com 1.10,2013-02-28 13:18:00,
2013-02-28 09:33:00,81.9,74.0,29.91,East,84,6.0,17.0,77,0.00,,,0.00,weatherlink.com 1.10,2013-02-28 13:33:00,
2013-02-28 09:48:00,83.1,74.0,29.91,East,87,6.0,19.0,75,0.00,,,0.00,weatherlink.com 1.10,2013-02-28 13:48:00,
2013-02-28 10:03:00,83.5,74.0,29.91,SE,134,11.0,22.0,74,0.00,,,0.00,weatherlink.com 1.10,2013-02-28 14:03:00,
2013-02-28 10:18:00,84.1,74.0,29.92,East,89,13.0,18.0,72,0.00,,,0.00,weatherlink.com 1.10,2013-02-28 14:18:00,
2013-02-28 10:33:00,84.2,74.0,29.92,ENE,72,10.0,18.0,72,0.00,,,0.00,weatherlink.com 1.10,2013-02-28 14:33:00,
2013-02-28 10:48:00,83.8,74.0,29.92,ESE,121,11.0,23.0,73,0.00,,,0.00,weatherlink.com 1.10,2013-02-28 14:48:00,
2013-02-28 11:03:00,84.9,74.0,29.92,East,93,16.0,19.0,70,0.00,,,0.00,weatherlink.com 1.10,2013-02-28 15:03:00,
2013-02-28 11:18:00,84.9,74.0,29.91,East,86,11.0,19.0,70,0.00,,,0.00,weatherlink.com 1.10,2013-02-28 15:18:00,
2013-02-28 11:33:00,84.1,75.0,29.91,ESE,120,15.0,22.0,73,0.00,,,0.00,weatherlink.com 1.10,2013-02-28 15:33:00,
2013-02-28 11:48:00,84.8,74.0,29.90,East,87,14.0,21.0,70,0.00,,,0.00,weatherlink.com 1.10,2013-02-28 15:48:00,
2013-02-28 12:03:00,84.5,74.0,29.89,ESE,117,8.0,23.0,70,0.00,,,0.00,weatherlink.com 1.10,2013-02-28 16:03:00,
2013-02-28 12:18:00,85.1,74.0,29.88,East,80,13.0,22.0,70,0.00,,,0.00,weatherlink.com 1.10,2013-02-28 16:18:00,
2013-02-28 12:34:00,84.6,74.0,29.88,ESE,110,11.0,22.0,70,0.00,,,0.00,weatherlink.com 1.10,2013-02-28 16:34:00,
2013-02-28 12:48:00,84.2,74.0,29.88,East,90,8.0,18.0,72,0.00,,,0.00,weatherlink.com 1.10,2013-02-28 16:48:00,
2013-02-28 13:04:00,84.7,75.0,29.87,ENE,67,9.0,22.0,72,0.00,,,0.00,weatherlink.com 1.10,2013-02-28 17:04:00,
2013-02-28 13:19:00,85.4,73.0,29.87,ESE,111,15.0,25.0,67,0.00,,,0.00,weatherlink.com 1.10,2013-02-28 17:19:00,
2013-02-28 13:34:00,85.0,73.0,29.86,ESE,121,12.0,23.0,68,0.00,,,0.00,weatherlink.com 1.10,2013-02-28 17:34:00,
2013-02-28 13:49:00,85.7,73.0,29.85,ESE,117,15.0,24.0,66,0.00,,,0.00,weatherlink.com 1.10,2013-02-28 17:49:00,
2013-02-28 14:04:00,85.7,74.0,29.84,East,92,10.0,22.0,67,0.00,,,0.00,weatherlink.com 1.10,2013-02-28 18:04:00,
2013-02-28 14:19:00,84.9,74.0,29.84,ESE,104,12.0,24.0,69,0.00,,,0.00,weatherlink.com 1.10,2013-02-28 18:19:00,
2013-02-28 14:34:00,84.7,74.0,29.83,ESE,104,9.0,24.0,70,0.00,,,0.00,weatherlink.com 1.10,2013-02-28 18:34:00,
2013-02-28 14:49:00,85.7,74.0,29.82,ENE,78,10.0,19.0,68,0.00,,,0.00,weatherlink.com 1.10,2013-02-28 18:49:00,
2013-02-28 15:04:00,84.4,73.0,29.81,East,94,8.0,24.0,69,0.00,,,0.00,weatherlink.com 1.10,2013-02-28 19:04:00,
2013-02-28 15:19:00,84.1,73.0,29.81,SE,124,12.0,24.0,70,0.00,,,0.00,weatherlink.com 1.10,2013-02-28 19:19:00,
2013-02-28 15:34:00,84.5,73.0,29.80,ENE,68,9.0,22.0,68,0.00,,,0.00,weatherlink.com 1.10,2013-02-28 19:34:00,
2013-02-28 15:49:00,83.8,73.0,29.79,SE,124,7.0,25.0,70,0.00,,,0.00,weatherlink.com 1.10,2013-02-28 19:49:00,
2013-02-28 16:04:00,83.7,73.0,29.79,ENE,71,17.0,22.0,71,0.00,,,0.00,weatherlink.com 1.10,2013-02-28 20:04:00,
2013-02-28 16:19:00,82.8,74.0,29.79,East,79,9.0,22.0,75,0.00,,,0.00,weatherlink.com 1.10,2013-02-28 20:19:00,
2013-02-28 16:34:00,82.5,73.0,29.79,ENE,71,13.0,24.0,74,0.00,,,0.00,weatherlink.com 1.10,2013-02-28 20:34:00,
2013-02-28 16:49:00,82.7,74.0,29.78,East,95,19.0,23.0,75,0.00,,,0.00,weatherlink.com 1.10,2013-02-28 20:49:00,
2013-02-28 17:04:00,82.8,75.0,29.78,ENE,60,13.0,21.0,76,0.00,,,0.00,weatherlink.com 1.10,2013-02-28 21:04:00,
2013-02-28 17:19:00,82.2,74.0,29.79,East,86,6.0,19.0,76,0.00,,,0.00,weatherlink.com 1.10,2013-02-28 21:19:00,
2013-02-28 17:34:00,81.6,73.0,29.79,East,93,14.0,19.0,76,0.00,,,0.00,weatherlink.com 1.10,2013-02-28 21:34:00,
2013-02-28 17:49:00,81.9,74.0,29.79,ESE,104,11.0,22.0,76,0.00,,,0.00,weatherlink.com 1.10,2013-02-28 21:49:00,
2013-02-28 18:04:00,81.4,73.0,29.79,ENE,76,5.0,22.0,75,0.00,,,0.00,weatherlink.com 1.10,2013-02-28 22:04:00,
2013-02-28 18:19:00,80.9,73.0,29.79,ENE,59,12.0,19.0,77,0.00,,,0.00,weatherlink.com 1.10,2013-02-28 22:19:00,
2013-02-28 18:34:00,80.6,73.0,29.79,NNE,28,9.0,17.0,77,0.00,,,0.00,weatherlink.com 1.10,2013-02-28 22:34:00,
2013-02-28 18:49:00,80.3,73.0,29.79,ENE,63,8.0,19.0,77,0.00,,,0.00,weatherlink.com 1.10,2013-02-28 22:49:00,
2013-02-28 19:04:00,80.0,73.0,29.79,SE,126,5.0,19.0,79,0.00,,,0.00,weatherlink.com 1.10,2013-02-28 23:04:00,
2013-02-28 19:34:00,79.6,73.0,29.79,ENE,62,15.0,16.0,80,0.00,,,0.00,weatherlink.com 1.10,2013-02-28 23:34:00,
2013-02-28 19:49:00,79.6,74.0,29.80,NE,37,4.0,15.0,82,0.00,,,0.00,weatherlink.com 1.10,2013-02-28 23:49:00,
2013-02-28 20:04:00,79.6,73.0,29.80,ENE,69,15.0,17.0,81,0.00,,,0.00,weatherlink.com 1.10,2013-03-01 00:04:00,
2013-02-28 20:19:00,79.5,74.0,29.80,NE,55,12.0,18.0,82,0.00,,,0.00,weatherlink.com 1.10,2013-03-01 00:19:00,
2013-02-28 20:34:00,79.4,73.0,29.80,East,86,14.0,21.0,81,0.00,,,0.00,weatherlink.com 1.10,2013-03-01 00:34:00,
2013-02-28 20:49:00,79.5,74.0,29.81,NE,40,5.0,15.0,82,0.00,,,0.00,weatherlink.com 1.10,2013-03-01 00:49:00,
2013-02-28 21:04:00,79.5,73.0,29.82,ENE,78,3.0,14.0,81,0.00,,,0.00,weatherlink.com 1.10,2013-03-01 01:04:00,
2013-02-28 21:19:00,79.5,73.0,29.82,East,82,14.0,17.0,81,0.00,,,0.00,weatherlink.com 1.10,2013-03-01 01:19:00,
2013-02-28 21:34:00,79.4,73.0,29.82,East,94,5.0,16.0,81,0.00,,,0.00,weatherlink.com 1.10,2013-03-01 01:34:00,
2013-02-28 21:49:00,79.5,73.0,29.83,ENE,67,10.0,15.0,81,0.00,,,0.00,weatherlink.com 1.10,2013-03-01 01:49:00,
2013-02-28 22:04:00,79.5,73.0,29.84,NE,53,8.0,15.0,81,0.00,,,0.00,weatherlink.com 1.10,2013-03-01 02:04:00,
2013-02-28 22:19:00,79.5,73.0,29.84,East,81,10.0,19.0,81,0.00,,,0.00,weatherlink.com 1.10,2013-03-01 02:19:00,
2013-02-28 22:34:00,79.6,73.0,29.84,East,98,7.0,17.0,80,0.00,,,0.00,weatherlink.com 1.10,2013-03-01 02:34:00,
2013-02-28 22:49:00,79.6,73.0,29.84,ENE,76,5.0,15.0,81,0.00,,,0.00,weatherlink.com 1.10,2013-03-01 02:49:00,
2013-02-28 23:04:00,79.6,73.0,29.85,ENE,57,11.0,21.0,81,0.00,,,0.00,weatherlink.com 1.10,2013-03-01 03:04:00,
2013-02-28 23:19:00,79.5,74.0,29.85,NE,42,4.0,18.0,82,0.00,,,0.00,weatherlink.com 1.10,2013-03-01 03:19:00,
2013-02-28 23:34:00,79.4,74.0,29.85,East,84,5.0,14.0,82,0.00,,,0.00,weatherlink.com 1.10,2013-03-01 03:34:00,
2013-02-28 23:49:00,79.4,74.0,29.84,ENE,78,7.0,13.0,82,0.00,,,0.00,weatherlink.com 1.10,2013-03-01 03:49:00,